Time;durP1;ratioP1;P1;durP2;ratioP2;P2;SDS_P1;SDS_P2;PMS_P1;PMS_P2;Temp;Humidity;BMP_temperature;BMP_pressure;BME280_temperature;BME280_humidity;BME280_pressure;Samples;Min_cycle;Max_cycle;Signal;HPM_P1;HPM_P2
2024/01/16 00:03:52;;;;;;;1.42;0.43;;;;;;;2.88;62.89;99644.56;10287051;28;20532;-81
2024/01/16 00:08:53;;;;;;;2.88;0.40;;;;;;;2.84;62.77;99651.16;10292030;28;20061;-80
2024/01/16 00:13:55;;;;;;;1.70;0.60;;;;;;;2.80;62.96;99647.94;10271440;28;20485;-82
2024/01/16 00:18:57;;;;;;;4.68;0.73;;;;;;;2.82;62.70;99653.09;10273966;28;20046;-81
2024/01/16 00:23:59;;;;;;;7.93;1.25;;;;;;;2.83;62.84;99652.16;10257596;28;20063;-81
2024/01/16 00:29:01;;;;;;;3.83;1.23;;;;;;;2.84;62.64;99651.16;10274884;28;20055;-81
2024/01/16 00:34:03;;;;;;;4.80;0.70;;;;;;;2.79;62.85;99659.56;10272768;28;20051;-81
2024/01/16 00:39:07;;;;;;;1.23;0.60;;;;;;;2.79;62.83;99664.84;10281343;28;20153;-81
2024/01/16 00:44:10;;;;;;;2.80;0.80;;;;;;;2.83;62.80;99666.25;10290303;28;20054;-81
2024/01/16 00:49:13;;;;;;;1.90;0.63;;;;;;;2.76;63.02;99679.25;10277022;28;20139;-81
2024/01/16 00:54:17;;;;;;;6.20;1.00;;;;;;;2.57;64.11;99673.97;10274803;28;20133;-81
2024/01/16 00:59:19;;;;;;;3.30;0.80;;;;;;;2.53;64.04;99672.59;10303178;28;20046;-80
2024/01/16 01:04:23;;;;;;;7.88;1.45;;;;;;;2.48;63.80;99666.84;10294421;28;20091;-80
2024/01/16 01:09:24;;;;;;;10.68;1.20;;;;;;;2.47;64.06;99660.72;10288290;28;20050;-81
2024/01/16 01:14:29;;;;;;;2.53;0.60;;;;;;;2.35;64.20;99665.34;10291148;28;20054;-81
2024/01/16 01:19:31;;;;;;;4.75;1.00;;;;;;;2.30;64.27;99679.97;10300353;28;20156;-81
2024/01/16 01:24:32;;;;;;;3.45;1.00;;;;;;;2.28;64.28;99682.78;10284872;28;20057;-80
2024/01/16 01:29:42;;;;;;;4.05;1.13;;;;;;;2.24;64.04;99685.84;10305470;28;20057;-80
2024/01/16 01:34:44;;;;;;;8.07;1.13;;;;;;;2.23;64.35;99703.53;10283642;28;20057;-80
2024/01/16 01:39:45;;;;;;;5.63;0.90;;;;;;;2.33;64.15;99712.38;10296776;28;20560;-80
2024/01/16 01:44:48;;;;;;;1.80;1.00;;;;;;;2.41;63.77;99703.72;10281009;28;20050;-83
2024/01/16 01:49:51;;;;;;;6.50;1.15;;;;;;;2.37;64.45;99711.13;10293905;28;21282;-84
2024/01/16 01:54:53;;;;;;;2.42;0.80;;;;;;;2.34;64.07;99724.63;10286832;28;20047;-84
2024/01/16 01:59:55;;;;;;;8.75;1.30;;;;;;;2.49;63.84;99724.22;10279655;28;20081;-83
2024/01/16 02:04:57;;;;;;;4.45;1.58;;;;;;;2.57;64.10;99721.72;10259424;28;20049;-82
2024/01/16 02:10:00;;;;;;;6.05;2.50;;;;;;;2.70;63.88;99724.91;10275775;28;20058;-82
2024/01/16 02:15:03;;;;;;;5.07;1.17;;;;;;;2.70;63.70;99724.91;10294323;28;20152;-82
2024/01/16 02:20:07;;;;;;;5.25;1.23;;;;;;;2.68;63.81;99718.06;10298710;28;20050;-83
2024/01/16 02:25:09;;;;;;;3.10;1.02;;;;;;;2.79;63.69;99731.22;10295949;28;20038;-82
2024/01/16 02:30:13;;;;;;;6.30;1.38;;;;;;;2.78;64.20;99740.13;10260950;28;20062;-82
2024/01/16 02:35:15;;;;;;;2.75;1.27;;;;;;;2.85;63.91;99735.94;10266792;28;20050;-82
2024/01/16 02:40:17;;;;;;;5.90;1.85;;;;;;;2.91;63.91;99737.19;10277075;28;20249;-83
2024/01/16 02:45:19;;;;;;;6.57;1.40;;;;;;;2.96;63.49;99733.16;10276753;28;20055;-82
2024/01/16 02:50:21;;;;;;;6.75;2.05;;;;;;;2.97;63.56;99745.41;10288723;28;20105;-83
2024/01/16 02:55:23;;;;;;;7.38;2.38;;;;;;;2.97;63.73;99740.13;10267773;28;20137;-81
2024/01/16 03:00:24;;;;;;;7.88;2.17;;;;;;;2.98;63.59;99743.59;10289465;28;20158;-83
2024/01/16 03:05:26;;;;;;;7.03;2.22;;;;;;;2.93;64.42;99746.69;10278930;28;20144;-83
2024/01/16 03:10:28;;;;;;;5.78;1.90;;;;;;;2.91;64.04;99750.47;10268711;28;20054;-82
2024/01/16 03:15:30;;;;;;;5.60;2.05;;;;;;;2.92;64.36;99758.31;10280960;28;20470;-83
2024/01/16 03:20:32;;;;;;;10.90;1.85;;;;;;;2.88;64.15;99770.16;10267561;28;20054;-82
2024/01/16 03:25:38;;;;;;;7.13;2.45;;;;;;;2.83;64.96;99753.81;10289794;28;20050;-83
2024/01/16 03:30:40;;;;;;;8.30;1.90;;;;;;;2.84;64.71;99776.72;10293770;28;20061;-83
2024/01/16 03:35:42;;;;;;;9.73;2.42;;;;;;;2.85;64.86;99765.13;10271571;28;20057;-83
2024/01/16 03:40:44;;;;;;;14.23;3.53;;;;;;;2.74;64.36;99779.38;10272487;28;20047;-81
2024/01/16 03:45:47;;;;;;;14.40;4.63;;;;;;;2.73;64.46;99783.03;10277139;28;20454;-82
2024/01/16 03:50:48;;;;;;;4.97;2.28;;;;;;;2.61;64.89;99768.22;10288851;28;20063;-81
2024/01/16 03:55:51;;;;;;;5.43;2.08;;;;;;;2.62;64.31;99774.34;10297938;28;20054;-82
2024/01/16 04:00:53;;;;;;;5.30;1.90;;;;;;;2.61;64.80;99770.88;10264349;28;20058;-82
2024/01/16 04:05:55;;;;;;;9.00;2.72;;;;;;;2.69;64.08;99776.31;10275250;28;20095;-83
2024/01/16 04:10:56;;;;;;;5.72;1.80;;;;;;;2.65;64.42;99774.94;10289870;28;20053;-83
2024/01/16 04:15:58;;;;;;;4.28;1.83;;;;;;;2.65;64.12;99782.06;10291969;28;20062;-81
2024/01/16 04:21:01;;;;;;;4.93;1.92;;;;;;;2.58;64.62;99769.31;10291852;28;20105;-82
2024/01/16 04:26:03;;;;;;;3.65;1.38;;;;;;;2.62;64.40;99774.34;10290956;28;20046;-82
2024/01/16 04:31:04;;;;;;;8.90;1.90;;;;;;;2.67;64.25;99778.28;10291092;28;20074;-82
2024/01/16 04:36:07;;;;;;;7.70;2.17;;;;;;;2.69;63.73;99781.63;10267747;28;21000;-82
2024/01/16 04:41:11;;;;;;;5.75;1.73;;;;;;;2.69;63.68;99772.84;10284911;28;20054;-82
2024/01/16 04:46:14;;;;;;;7.82;1.48;;;;;;;2.70;63.82;99775.31;10288942;28;20109;-82
2024/01/16 04:51:16;;;;;;;5.30;1.42;;;;;;;2.70;63.67;99788.59;10281647;28;20046;-81
2024/01/16 04:56:18;;;;;;;8.45;1.85;;;;;;;2.63;64.08;99789.31;10280424;28;20485;-83
2024/01/16 05:01:19;;;;;;;7.55;1.63;;;;;;;2.48;64.63;99796.81;10289774;28;20659;-83
2024/01/16 05:06:21;;;;;;;5.60;2.05;;;;;;;2.40;64.82;99792.22;10270846;28;20106;-83
2024/01/16 05:11:23;;;;;;;5.47;1.50;;;;;;;2.31;65.21;99788.56;10297069;28;20039;-82
2024/01/16 05:16:25;;;;;;;7.13;2.13;;;;;;;2.23;65.37;99777.78;10286172;28;20035;-82
2024/01/16 05:21:27;;;;;;;4.15;1.63;;;;;;;2.17;65.87;99773.91;10265832;28;20062;-82
2024/01/16 05:26:29;;;;;;;13.50;2.05;;;;;;;2.23;65.76;99761.88;10292399;28;20047;-82
2024/01/16 05:31:39;;;;;;;6.57;2.30;;;;;;;2.15;66.09;99754.63;10299190;28;20113;-80
2024/01/16 05:36:41;;;;;;;6.55;1.60;;;;;;;2.11;66.11;99744.41;10292735;28;20053;-80
2024/01/16 05:41:43;;;;;;;5.22;1.52;;;;;;;2.05;66.27;99747.63;10278524;28;20054;-81
2024/01/16 05:46:45;;;;;;;4.00;2.00;;;;;;;1.98;66.14;99752.63;10287762;28;20583;-85
2024/01/16 05:51:47;;;;;;;6.43;1.65;;;;;;;1.95;66.21;99747.59;10276046;28;20363;-81
2024/01/16 05:56:49;;;;;;;5.90;2.13;;;;;;;1.92;65.64;99747.88;10282307;28;20058;-82
2024/01/16 06:01:52;;;;;;;16.27;2.08;;;;;;;1.79;66.64;99741.00;10292510;28;20110;-82
2024/01/16 06:06:54;;;;;;;7.40;2.20;;;;;;;1.83;66.13;99738.91;10279637;28;20126;-82
2024/01/16 06:11:56;;;;;;;6.30;3.00;;;;;;;1.85;65.80;99736.13;10273580;28;20062;-86
2024/01/16 06:16:57;;;;;;;8.25;3.47;;;;;;;1.80;65.97;99736.56;10314469;28;20041;-85
2024/01/16 06:22:00;;;;;;;6.60;2.47;;;;;;;1.64;66.13;99731.75;10307267;28;20059;-82
2024/01/16 06:27:04;;;;;;;12.55;3.22;;;;;;;1.62;66.41;99728.41;10321523;28;20079;-84
2024/01/16 06:32:06;;;;;;;6.47;2.47;;;;;;;1.54;66.28;99721.13;10297464;28;20058;-83
2024/01/16 06:37:08;;;;;;;8.60;2.72;;;;;;;1.53;65.72;99703.53;10277070;28;20054;-84
2024/01/16 06:42:11;;;;;;;7.15;2.05;;;;;;;1.48;65.40;99710.22;10336754;28;20039;-84
2024/01/16 06:47:12;;;;;;;5.65;2.75;;;;;;;1.39;66.32;99715.34;10302239;28;20051;-88
2024/01/16 06:52:14;;;;;;;8.30;2.50;;;;;;;1.30;66.00;99717.94;10296424;28;20066;-86
2024/01/16 06:57:16;;;;;;;7.05;2.60;;;;;;;1.23;66.14;99711.50;10278779;28;20114;-85
2024/01/16 07:02:19;;;;;;;4.43;1.90;;;;;;;1.24;66.42;99715.81;10281982;28;20086;-83
2024/01/16 07:07:21;;;;;;;8.68;3.22;;;;;;;1.16;66.86;99712.00;10284073;28;20104;-81
2024/01/16 07:12:23;;;;;;;5.90;2.03;;;;;;;1.16;66.41;99719.13;10285139;28;20062;-91
2024/01/16 07:17:24;;;;;;;10.55;2.50;;;;;;;1.15;66.87;99728.88;10301994;28;20062;-92
2024/01/16 07:22:28;;;;;;;5.82;2.55;;;;;;;1.20;66.59;99739.06;10311008;28;20030;-92
2024/01/16 07:27:30;;;;;;;5.93;1.98;;;;;;;1.15;66.23;99738.63;10307130;28;20058;-91
2024/01/16 07:32:33;;;;;;;7.60;2.45;;;;;;;1.16;66.44;99746.41;10309359;28;20045;-93
2024/01/16 07:37:37;;;;;;;8.07;2.63;;;;;;;1.11;66.35;99742.50;10286633;28;20051;-88
2024/01/16 07:42:42;;;;;;;8.43;3.30;;;;;;;1.12;66.22;99752.13;10269239;28;20043;-88
2024/01/16 07:47:45;;;;;;;5.93;2.35;;;;;;;1.13;66.32;99761.75;10281352;28;20054;-88
2024/01/16 07:52:49;;;;;;;10.43;2.97;;;;;;;1.11;66.34;99764.53;10278500;28;20541;-87
2024/01/16 07:57:50;;;;;;;10.70;3.28;;;;;;;1.17;66.74;99771.09;10258922;28;20073;-86
2024/01/16 08:02:53;;;;;;;9.70;4.57;;;;;;;1.29;66.03;99763.94;10291722;28;20086;-86
2024/01/16 08:07:54;;;;;;;10.82;3.38;;;;;;;1.38;65.92;99766.63;10277953;28;20130;-86
2024/01/16 08:12:56;;;;;;;10.00;4.13;;;;;;;1.40;65.79;99758.53;10272709;28;20520;-87
2024/01/16 08:17:58;;;;;;;7.18;2.92;;;;;;;1.55;66.12;99759.03;10291370;28;20059;-86
2024/01/16 08:23:00;;;;;;;8.75;3.08;;;;;;;1.75;65.23;99763.44;10287002;28;20058;-84
2024/01/16 08:28:03;;;;;;;11.95;2.95;;;;;;;1.65;65.73;99772.31;10272582;28;20093;-86
2024/01/16 08:33:07;;;;;;;11.95;3.58;;;;;;;1.72;66.05;99776.13;10292592;28;20066;-85
2024/01/16 08:38:09;;;;;;;8.05;3.22;;;;;;;1.83;65.40;99786.59;10281312;28;20049;-85
2024/01/16 08:43:13;;;;;;;4.72;2.97;;;;;;;1.95;64.85;99785.53;10280182;28;20050;-86
2024/01/16 08:48:15;;;;;;;10.60;2.90;;;;;;;1.92;65.11;99800.88;10303584;28;20065;-90
2024/01/16 08:53:17;;;;;;;10.38;3.42;;;;;;;2.13;64.82;99796.34;10296143;28;20054;-89
2024/01/16 08:58:19;;;;;;;9.70;3.15;;;;;;;2.11;65.38;99784.19;10270241;28;20059;-90
2024/01/16 09:03:20;;;;;;;7.93;2.53;;;;;;;2.16;64.67;99785.47;10300112;28;20050;-88
2024/01/16 09:08:22;;;;;;;7.40;3.17;;;;;;;2.13;64.97;99784.88;10282123;28;20062;-91
2024/01/16 09:13:24;;;;;;;15.40;4.00;;;;;;;2.24;64.70;99783.94;10296199;28;20401;-89
2024/01/16 09:18:26;;;;;;;11.45;3.50;;;;;;;2.34;64.56;99782.16;10274710;28;20433;-88
2024/01/16 09:23:28;;;;;;;9.50;3.75;;;;;;;2.68;64.05;99784.41;10285759;28;20047;-88
2024/01/16 09:28:30;;;;;;;8.10;3.13;;;;;;;2.82;64.08;99777.84;10286906;28;20051;-89
2024/01/16 09:33:32;;;;;;;10.65;3.08;;;;;;;2.93;63.59;99793.63;10308311;28;20058;-89
2024/01/16 09:38:34;;;;;;;6.78;3.40;;;;;;;2.90;63.49;99808.03;10310399;28;20110;-89
2024/01/16 09:43:37;;;;;;;7.13;4.07;;;;;;;2.81;64.12;99803.56;10287080;28;20057;-88
2024/01/16 09:48:40;;;;;;;11.85;4.07;;;;;;;2.76;63.82;99817.25;10298122;28;20062;-90
2024/01/16 09:53:44;;;;;;;9.38;3.75;;;;;;;2.81;63.47;99832.75;10290540;28;20054;-89
2024/01/16 09:58:48;;;;;;;13.00;4.20;;;;;;;2.83;64.00;99833.44;10281221;28;20070;-86
2024/01/16 10:03:51;;;;;;;7.95;4.38;;;;;;;2.78;63.68;99841.84;10287967;28;20083;-85
2024/01/16 10:08:54;;;;;;;9.27;3.78;;;;;;;2.85;63.17;99834.16;10276201;28;20504;-86
2024/01/16 10:13:58;;;;;;;16.88;4.47;;;;;;;2.90;63.56;99829.28;10273947;28;20505;-85
2024/01/16 10:19:06;;;;;;;11.07;3.75;;;;;;;3.04;62.88;99814.75;10279649;28;20055;-86
2024/01/16 10:24:12;;;;;;;16.55;5.22;;;;;;;3.12;63.08;99819.31;10291973;28;20050;-85
2024/01/16 10:29:14;;;;;;;12.73;4.30;;;;;;;3.23;62.72;99805.06;10267605;28;20058;-86
2024/01/16 10:34:23;;;;;;;10.35;4.97;;;;;;;3.24;62.55;99802.28;10295133;28;20055;-86
2024/01/16 10:39:25;;;;;;;8.27;3.28;;;;;;;3.36;62.36;99809.09;10282583;28;20950;-86
2024/01/16 10:44:54;;;;;;;9.75;3.28;;;;;;;3.49;62.13;99799.97;10269708;28;20039;-86
2024/01/16 10:49:56;;;;;;;15.57;4.47;;;;;;;3.62;61.92;99797.00;10280493;28;20422;-86
2024/01/16 10:55:03;;;;;;;9.60;2.83;;;;;;;3.62;61.91;99789.03;10275387;28;20050;-85
2024/01/16 11:00:08;;;;;;;11.70;3.20;;;;;;;3.61;62.00;99795.31;10294359;28;20477;-87
2024/01/16 11:05:12;;;;;;;6.00;3.10;;;;;;;3.81;61.55;99780.13;10284930;28;20052;-86
2024/01/16 11:10:14;;;;;;;13.57;3.85;;;;;;;3.93;61.54;99777.16;10308329;28;20065;-83
2024/01/16 11:15:18;;;;;;;6.85;3.63;;;;;;;3.91;61.50;99770.28;10312736;28;20035;-86
2024/01/16 11:20:21;;;;;;;8.18;4.20;;;;;;;3.92;61.46;99762.16;10322798;28;20055;-83
2024/01/16 11:25:33;;;;;;;15.13;3.95;;;;;;;4.18;60.79;99764.13;10299830;28;20043;-83
2024/01/16 11:30:35;;;;;;;13.75;3.42;;;;;;;4.19;60.67;99747.19;10314191;28;20047;-84
2024/01/16 11:35:38;;;;;;;10.00;3.47;;;;;;;4.31;60.29;99732.69;10316262;28;20058;-85
2024/01/16 11:40:40;;;;;;;6.57;3.40;;;;;;;4.41;60.50;99721.16;10252736;23;20524;-63
2024/01/16 11:45:49;;;;;;;13.63;3.65;;;;;;;4.42;60.17;99717.47;10253505;28;20607;-63
2024/01/16 11:50:52;;;;;;;6.97;2.25;;;;;;;4.50;59.91;99706.91;10270930;28;20066;-70
2024/01/16 11:56:30;;;;;;;11.43;4.40;;;;;;;4.62;59.57;99699.53;10270751;28;20077;-67
2024/01/16 12:01:45;;;;;;;10.57;3.67;;;;;;;4.69;59.87;99689.94;10275853;28;20134;-76
2024/01/16 12:07:00;;;;;;;12.65;3.50;;;;;;;4.90;59.34;99690.44;10276369;28;20049;-73
2024/01/16 12:12:02;;;;;;;19.00;6.25;;;;;;;4.89;59.19;99675.44;10271576;28;20498;-72
2024/01/16 12:17:09;;;;;;;14.88;3.80;;;;;;;4.99;58.95;99671.84;10297911;28;20082;-71
2024/01/16 12:22:13;;;;;;;11.07;3.53;;;;;;;5.19;58.75;99675.94;10281602;28;20073;-67
2024/01/16 12:27:15;;;;;;;7.55;2.88;;;;;;;5.28;58.21;99656.38;10284302;28;20054;-69
2024/01/16 12:32:18;;;;;;;5.43;2.78;;;;;;;5.21;57.95;99660.66;10287650;28;20055;-72
2024/01/16 12:37:19;;;;;;;11.43;3.13;;;;;;;5.24;57.61;99667.50;10294166;28;20054;-68
2024/01/16 12:42:21;;;;;;;21.10;6.22;;;;;;;5.27;57.81;99654.72;10348429;28;20106;-66
2024/01/16 12:47:26;;;;;;;7.93;2.40;;;;;;;5.46;57.43;99658.09;10399471;22;20049;-88
2024/01/16 12:52:29;;;;;;;7.70;2.40;;;;;;;5.38;57.42;99642.91;10337059;28;20055;-88
2024/01/16 12:57:31;;;;;;;6.70;1.85;;;;;;;5.17;57.23;99640.63;10460629;23;20050;-88
2024/01/16 13:02:33;;;;;;;10.55;2.85;;;;;;;5.10;57.39;99634.28;10352364;28;20137;-88
2024/01/16 13:07:35;;;;;;;5.47;2.17;;;;;;;4.96;57.86;99636.53;10317167;28;20051;-89
2024/01/16 13:12:37;;;;;;;12.52;3.20;;;;;;;4.76;58.09;99635.94;10309067;23;20137;-68
2024/01/16 13:17:39;;;;;;;6.63;2.78;;;;;;;4.77;57.23;99623.44;10296691;28;20316;-68
2024/01/16 13:22:41;;;;;;;7.55;3.13;;;;;;;4.60;57.81;99625.19;10297864;28;20790;-67
2024/01/16 13:27:48;;;;;;;8.38;3.03;;;;;;;4.53;57.84;99624.94;10298218;28;20493;-68
2024/01/16 13:32:49;;;;;;;8.60;3.03;;;;;;;4.39;57.76;99622.84;10300299;28;20051;-67
2024/01/16 13:37:51;;;;;;;11.55;2.42;;;;;;;4.48;57.58;99619.25;10302626;28;20126;-67
2024/01/16 13:42:52;;;;;;;6.95;2.90;;;;;;;4.46;57.02;99618.56;10298690;28;20055;-67
2024/01/16 13:47:55;;;;;;;8.32;2.65;;;;;;;4.42;57.05;99603.06;10298622;28;20051;-68
2024/01/16 13:52:56;;;;;;;7.30;2.13;;;;;;;4.36;57.13;99594.72;10300918;28;20054;-67
2024/01/16 13:57:58;;;;;;;8.05;2.20;;;;;;;4.25;57.71;99602.94;10303057;28;20427;-68
2024/01/16 14:02:59;;;;;;;8.38;2.03;;;;;;;4.25;57.45;99602.13;10305787;28;20065;-67
2024/01/16 14:08:02;;;;;;;10.02;2.40;;;;;;;4.17;57.74;99601.03;10303499;28;20051;-67
2024/01/16 14:13:04;;;;;;;6.70;2.80;;;;;;;4.10;57.77;99597.31;10302071;28;20051;-68
2024/01/16 14:18:06;;;;;;;14.38;3.92;;;;;;;4.07;57.63;99613.59;10305772;28;20386;-69
2024/01/16 14:23:07;;;;;;;6.75;3.10;;;;;;;4.02;57.80;99607.88;10295577;28;20078;-67
2024/01/16 14:28:10;;;;;;;8.45;2.42;;;;;;;4.03;57.80;99609.56;10298072;28;20121;-68
2024/01/16 14:33:23;;;;;;;8.35;2.72;;;;;;;4.02;57.38;99609.72;10304401;28;20105;-69
2024/01/16 14:38:25;;;;;;;9.68;2.80;;;;;;;4.06;57.59;99619.06;10297254;28;20057;-67
2024/01/16 14:43:26;;;;;;;8.02;3.03;;;;;;;4.06;57.71;99627.88;10297499;28;20054;-69
2024/01/16 14:48:28;;;;;;;14.35;3.40;;;;;;;4.06;57.58;99619.06;10301494;28;20046;-68
2024/01/16 14:53:31;;;;;;;15.55;5.10;;;;;;;4.06;57.61;99619.06;10300722;28;20046;-69
2024/01/16 14:58:33;;;;;;;12.35;3.88;;;;;;;4.03;57.18;99603.41;10297928;28;20053;-71
2024/01/16 15:03:34;;;;;;;9.52;3.30;;;;;;;4.10;56.86;99602.63;10292659;28;20072;-69
2024/01/16 15:08:36;;;;;;;6.50;2.28;;;;;;;4.15;56.89;99599.53;10301023;28;20414;-69
2024/01/16 15:13:37;;;;;;;7.57;1.90;;;;;;;4.26;56.52;99601.94;10302915;28;20586;-71
2024/01/16 15:18:38;;;;;;;9.70;2.08;;;;;;;4.29;57.12;99593.66;10305730;28;20038;-70
2024/01/16 15:23:40;;;;;;;11.00;2.20;;;;;;;4.10;56.95;99586.69;10299010;28;20077;-68
2024/01/16 15:28:42;;;;;;;5.03;2.30;;;;;;;4.04;57.04;99589.97;10293209;28;20071;-69
2024/01/16 15:33:46;;;;;;;6.03;2.15;;;;;;;3.93;57.17;99582.19;10295423;28;20053;-68
2024/01/16 15:38:48;;;;;;;7.20;1.70;;;;;;;3.87;57.39;99596.09;10299046;28;20132;-68
2024/01/16 15:43:50;;;;;;;5.25;1.98;;;;;;;3.73;57.76;99595.66;10292374;28;20050;-68
2024/01/16 15:48:51;;;;;;;7.28;1.98;;;;;;;3.63;57.38;99597.53;10288553;28;20051;-68
2024/01/16 15:53:53;;;;;;;8.80;2.38;;;;;;;3.46;57.54;99598.34;10290137;28;20055;-69
2024/01/16 15:58:54;;;;;;;11.13;2.83;;;;;;;3.35;57.62;99602.88;10295511;28;20125;-69
2024/01/16 16:03:56;;;;;;;8.25;2.70;;;;;;;3.18;57.82;99607.16;10276429;28;20454;-69
2024/01/16 16:08:57;;;;;;;5.03;2.63;;;;;;;3.10;57.56;99603.53;10287733;28;20124;-69
2024/01/16 16:13:59;;;;;;;6.07;2.90;;;;;;;2.97;57.60;99610.03;10294713;28;20130;-69
2024/01/16 16:19:00;;;;;;;7.18;1.98;;;;;;;2.81;57.96;99601.84;10298865;28;20046;-69
2024/01/16 16:24:03;;;;;;;8.25;2.72;;;;;;;2.75;58.37;99602.44;10298222;28;20073;-69
2024/01/16 16:29:06;;;;;;;10.35;3.55;;;;;;;2.67;58.40;99599.66;10303537;28;20058;-69
2024/01/16 16:34:11;;;;;;;23.10;5.60;;;;;;;2.60;58.37;99590.59;10304290;28;20042;-58
2024/01/16 16:39:16;;;;;;;14.27;4.28;;;;;;;2.45;58.11;99585.75;10288406;28;20047;-60
2024/01/16 16:44:17;;;;;;;10.90;3.85;;;;;;;2.27;58.68;99609.50;10307378;28;20137;-60
2024/01/16 16:49:19;;;;;;;10.15;2.92;;;;;;;2.18;59.17;99631.56;10309564;28;20157;-60
2024/01/16 16:54:20;;;;;;;15.38;4.97;;;;;;;2.09;59.24;99629.72;10307966;28;20042;-59
2024/01/16 16:59:22;;;;;;;11.68;3.55;;;;;;;2.03;58.81;99630.28;10307834;28;20453;-61
2024/01/16 17:04:24;;;;;;;6.88;2.58;;;;;;;1.98;58.80;99626.25;10305208;28;20105;-62
2024/01/16 17:09:26;;;;;;;7.93;2.65;;;;;;;1.95;58.94;99636.28;10306119;28;20477;-60
2024/01/16 17:14:27;;;;;;;7.70;2.88;;;;;;;1.98;59.02;99623.59;10299158;28;20058;-68
2024/01/16 17:19:29;;;;;;;8.02;2.70;;;;;;;2.07;59.30;99621.09;10302914;28;21480;-68
2024/01/16 17:24:30;;;;;;;9.07;2.38;;;;;;;2.05;59.20;99618.56;10302522;28;20065;-68
2024/01/16 17:29:32;;;;;;;6.13;2.45;;;;;;;2.12;59.54;99621.50;10303941;28;20093;-69
2024/01/16 17:34:34;;;;;;;14.50;2.75;;;;;;;2.06;59.23;99617.59;10297648;28;20046;-67
2024/01/16 17:39:35;;;;;;;8.18;2.55;;;;;;;2.04;59.56;99613.44;10297811;28;20059;-67
2024/01/16 17:44:49;;;;;;;10.30;2.72;;;;;;;1.95;59.62;99599.19;10301416;28;20042;-70
2024/01/16 17:49:51;;;;;;;8.05;2.42;;;;;;;1.84;59.63;99604.59;10299819;28;20072;-68
2024/01/16 17:54:52;;;;;;;6.28;2.15;;;;;;;1.72;59.43;99602.09;10298480;28;20133;-66
2024/01/16 17:59:54;;;;;;;7.90;2.60;;;;;;;1.64;59.94;99603.75;10302156;28;20050;-66
2024/01/16 18:04:55;;;;;;;5.05;2.10;;;;;;;1.59;59.75;99597.06;10304003;28;20572;-67
2024/01/16 18:09:59;;;;;;;12.70;3.17;;;;;;;1.51;59.52;99596.06;10323112;28;20056;-66
2024/01/16 18:15:00;;;;;;;10.60;3.47;;;;;;;1.47;60.30;99595.50;10299608;28;20523;-69
2024/01/16 18:20:02;;;;;;;9.57;2.60;;;;;;;1.39;59.93;99580.28;10300227;28;20058;-65
2024/01/16 18:25:08;;;;;;;14.50;3.65;;;;;;;1.34;60.20;99586.97;10300059;28;20062;-59
2024/01/16 18:30:15;;;;;;;8.52;2.65;;;;;;;1.28;59.72;99580.41;10292166;28;20488;-59
2024/01/16 18:35:17;;;;;;;9.05;3.42;;;;;;;1.19;60.12;99566.19;10298468;28;20406;-60
2024/01/16 18:40:20;;;;;;;10.77;3.35;;;;;;;1.11;59.85;99558.09;10277120;28;20043;-60
2024/01/16 18:45:21;;;;;;;12.32;4.72;;;;;;;1.02;60.43;99553.59;10295784;28;20501;-59
2024/01/16 18:50:24;;;;;;;14.52;4.10;;;;;;;0.95;60.37;99536.59;10295596;28;20066;-60
2024/01/16 18:55:26;;;;;;;9.30;3.65;;;;;;;0.90;59.82;99534.34;10294160;28;20494;-60
2024/01/16 19:00:28;;;;;;;17.55;4.45;;;;;;;0.81;60.68;99524.56;10291612;28;20556;-59
2024/01/16 19:05:30;;;;;;;6.80;3.78;;;;;;;0.74;60.87;99532.19;10293289;28;20054;-60
2024/01/16 19:10:31;;;;;;;15.13;4.82;;;;;;;0.71;60.18;99527.19;10301915;28;20039;-60
2024/01/16 19:15:33;;;;;;;17.80;5.95;;;;;;;0.63;61.08;99528.78;10296241;28;20049;-59
2024/01/16 19:20:35;;;;;;;25.50;5.22;;;;;;;0.54;60.39;99519.88;10290174;28;20057;-61
2024/01/16 19:25:36;;;;;;;11.35;4.20;;;;;;;0.45;60.31;99512.72;10293068;28;20047;-61
2024/01/16 19:30:38;;;;;;;12.13;5.50;;;;;;;0.37;61.21;99508.09;10293988;28;20050;-61
2024/01/16 19:35:40;;;;;;;13.05;4.32;;;;;;;0.28;60.98;99512.38;10298033;28;20065;-59
2024/01/16 19:40:41;;;;;;;12.23;3.80;;;;;;;0.23;60.98;99508.44;10293840;28;20064;-60
2024/01/16 19:45:46;;;;;;;13.90;3.88;;;;;;;0.17;60.67;99513.25;10295529;28;20089;-61
2024/01/16 19:50:48;;;;;;;12.20;3.83;;;;;;;0.08;61.81;99514.06;10295102;28;20047;-60
2024/01/16 19:55:50;;;;;;;11.07;3.47;;;;;;;0.04;61.35;99496.78;10290827;28;20501;-61
2024/01/16 20:00:52;;;;;;;10.90;3.60;;;;;;;-0.03;61.22;99485.06;10288921;28;20397;-61
2024/01/16 20:05:54;;;;;;;9.05;3.38;;;;;;;-0.07;61.79;99481.00;10292424;28;20054;-61
2024/01/16 20:10:57;;;;;;;12.65;4.20;;;;;;;-0.13;61.71;99477.06;10295405;28;20134;-60
2024/01/16 20:16:01;;;;;;;17.88;6.18;;;;;;;-0.21;62.33;99479.53;10296583;28;20350;-60
2024/01/16 20:21:03;;;;;;;18.67;7.03;;;;;;;-0.29;62.63;99481.97;10290609;28;20050;-61
2024/01/16 20:26:05;;;;;;;16.45;6.97;;;;;;;-0.34;62.32;99469.13;10297093;28;20083;-60
2024/01/16 20:31:07;;;;;;;21.52;7.80;;;;;;;-0.36;61.96;99463.16;10296386;28;20058;-59
2024/01/16 20:36:08;;;;;;;21.98;9.75;;;;;;;-0.41;61.73;99455.63;10292893;28;20050;-60
2024/01/16 20:41:11;;;;;;;30.55;9.85;;;;;;;-0.45;61.90;99463.94;10296189;28;20137;-59
2024/01/16 20:46:14;;;;;;;23.15;8.88;;;;;;;-0.55;62.04;99466.50;10298538;28;20047;-59
2024/01/16 20:51:16;;;;;;;13.75;6.82;;;;;;;-0.67;62.40;99470.97;10299265;28;20133;-63
2024/01/16 20:56:18;;;;;;;20.27;8.07;;;;;;;-0.65;63.14;99457.66;10296549;28;20520;-62
2024/01/16 21:01:19;;;;;;;18.05;7.38;;;;;;;-0.62;62.89;99460.88;10297403;28;20043;-63
2024/01/16 21:06:21;;;;;;;19.58;7.28;;;;;;;-0.68;63.07;99456.09;10293890;28;20046;-63
2024/01/16 21:11:22;;;;;;;14.02;6.43;;;;;;;-0.74;62.81;99458.41;10290139;28;20062;-61
2024/01/16 21:16:24;;;;;;;12.07;5.65;;;;;;;-0.83;63.47;99447.66;10304555;28;20325;-60
2024/01/16 21:21:25;;;;;;;23.05;5.57;;;;;;;-0.81;63.31;99442.22;10298861;28;20503;-62
2024/01/16 21:26:27;;;;;;;13.45;6.03;;;;;;;-0.82;62.91;99443.22;10303306;28;20046;-61
2024/01/16 21:31:29;;;;;;;23.38;6.53;;;;;;;-0.94;63.16;99439.78;10296092;28;20107;-60
2024/01/16 21:36:31;;;;;;;9.63;5.10;;;;;;;-0.94;63.16;99433.66;10296408;28;20143;-60
2024/01/16 21:41:34;;;;;;;17.48;6.40;;;;;;;-1.00;63.51;99427.91;10295220;28;20118;-60
2024/01/16 21:46:39;;;;;;;12.60;4.85;;;;;;;-1.04;63.17;99415.13;10301584;28;20054;-59
2024/01/16 21:51:43;;;;;;;19.30;6.22;;;;;;;-1.09;63.07;99402.28;10299062;28;20056;-60
2024/01/16 21:56:45;;;;;;;15.45;7.22;;;;;;;-1.15;63.13;99396.69;10302862;28;20525;-60
2024/01/16 22:01:46;;;;;;;23.20;6.65;;;;;;;-1.23;63.26;99397.31;10292376;28;20141;-60
2024/01/16 22:06:48;;;;;;;23.42;9.40;;;;;;;-1.42;63.88;99393.53;10299129;28;20139;-60
2024/01/16 22:11:50;;;;;;;13.77;5.95;;;;;;;-1.47;64.16;99389.59;10293333;28;20055;-60
2024/01/16 22:16:51;;;;;;;12.73;6.53;;;;;;;-1.46;63.84;99386.84;10300708;28;20599;-59
2024/01/16 22:21:53;;;;;;;15.20;5.50;;;;;;;-1.49;63.49;99384.44;10296114;28;20133;-60
2024/01/16 22:26:54;;;;;;;15.88;6.38;;;;;;;-1.77;64.57;99384.97;10300918;28;20054;-61
2024/01/16 22:31:57;;;;;;;21.27;5.88;;;;;;;-1.73;64.55;99368.78;10299562;28;20521;-61
2024/01/16 22:36:58;;;;;;;14.82;5.40;;;;;;;-1.77;64.19;99370.00;10303449;28;20054;-60
2024/01/16 22:42:01;;;;;;;11.55;5.38;;;;;;;-1.88;64.81;99356.81;10279579;28;20054;-59
2024/01/16 22:47:03;;;;;;;13.05;5.50;;;;;;;-1.86;64.42;99353.09;10300213;28;20090;-62
2024/01/16 22:52:05;;;;;;;17.08;5.07;;;;;;;-1.89;64.58;99352.53;10304467;28;20072;-60
2024/01/16 22:57:06;;;;;;;15.55;5.68;;;;;;;-1.94;64.85;99354.69;10303901;28;20288;-60
2024/01/16 23:02:08;;;;;;;11.15;5.47;;;;;;;-2.08;64.66;99346.06;10298431;28;20052;-60
2024/01/16 23:07:09;;;;;;;13.52;5.22;;;;;;;-2.05;64.90;99339.75;10297930;28;20061;-59
2024/01/16 23:12:11;;;;;;;16.52;4.82;;;;;;;-2.09;64.87;99327.78;10301873;28;20054;-59
2024/01/16 23:17:13;;;;;;;16.98;5.53;;;;;;;-2.14;65.16;99307.06;10299971;28;20167;-60
2024/01/16 23:22:14;;;;;;;11.65;5.18;;;;;;;-2.03;65.00;99299.16;10301108;28;20057;-60
2024/01/16 23:27:16;;;;;;;14.52;5.35;;;;;;;-1.98;64.44;99300.59;10296279;28;20051;-61
2024/01/16 23:32:17;;;;;;;12.10;4.60;;;;;;;-2.01;64.54;99281.44;10291623;28;20051;-60
2024/01/16 23:37:23;;;;;;;18.23;6.32;;;;;;;-2.03;64.38;99266.72;10293351;28;20558;-60